Time;durP1;ratioP1;P1;durP2;ratioP2;P2;SDS_P1;SDS_P2;PMS_P1;PMS_P2;Temp;Humidity;BMP_temperature;BMP_pressure;BME280_temperature;BME280_humidity;BME280_pressure;Samples;Min_cycle;Max_cycle;Signal;HPM_P1;HPM_P2
2022/07/21 00:02:20;;;;;;;;;;;16.80;99.90;;;;;;5093761;28;20350;-75
2022/07/21 00:04:45;;;;;;;;;;;16.80;99.90;;;;;;5075918;28;19994;-77
2022/07/21 00:07:11;;;;;;;;;;;16.80;99.90;;;;;;5093466;28;19999;-76
2022/07/21 00:09:37;;;;;;;;;;;16.80;99.90;;;;;;5093927;28;19903;-75
2022/07/21 00:12:03;;;;;;;;;;;16.70;99.90;;;;;;5092984;28;19950;-75
2022/07/21 00:14:28;;;;;;;;;;;16.70;99.90;;;;;;5093478;28;19904;-75
2022/07/21 00:16:54;;;;;;;;;;;16.60;99.90;;;;;;5093580;28;20006;-75
2022/07/21 00:19:20;;;;;;;;;;;16.60;99.90;;;;;;5074854;28;19911;-75
2022/07/21 00:21:45;;;;;;;;;;;16.50;99.90;;;;;;5093475;28;19904;-75
2022/07/21 00:24:11;;;;;;;;;;;16.50;99.90;;;;;;5092830;28;19930;-75
2022/07/21 00:26:36;;;;;;;;;;;16.50;99.90;;;;;;5093582;28;19904;-75
2022/07/21 00:29:02;;;;;;;;;;;16.40;99.90;;;;;;5092738;28;19987;-75
2022/07/21 00:31:28;;;;;;;;;;;16.50;99.90;;;;;;5075403;28;19904;-75
2022/07/21 00:33:53;;;;;;;;;;;16.50;99.90;;;;;;5093117;28;20340;-75
2022/07/21 00:36:19;;;;;;;;;;;16.50;99.90;;;;;;5092912;28;19914;-75
2022/07/21 00:38:45;;;;;;;;;;;16.40;99.90;;;;;;5093383;28;19910;-74
2022/07/21 00:41:10;;;;;;;;;;;16.50;99.90;;;;;;5092786;28;20266;-74
2022/07/21 00:43:36;;;;;;;;;;;16.40;99.90;;;;;;5093268;28;19904;-75
2022/07/21 00:46:02;;;;;;;;;;;16.40;99.90;;;;;;5092758;28;20342;-74
2022/07/21 00:48:27;;;;;;;;;;;16.50;99.90;;;;;;5092904;28;19916;-75
2022/07/21 00:50:53;;;;;;;;;;;16.50;99.90;;;;;;5093067;28;20248;-75
2022/07/21 00:53:18;;;;;;;;;;;16.50;99.90;;;;;;5092671;28;19911;-75
2022/07/21 00:55:44;;;;;;;;;;;16.50;99.90;;;;;;5093265;28;19908;-75
2022/07/21 00:58:10;;;;;;;;;;;16.50;99.90;;;;;;5092204;28;19959;-75
2022/07/21 01:00:36;;;;;;;;;;;16.40;99.90;;;;;;5093083;28;19904;-75
2022/07/21 01:03:02;;;;;;;;;;;16.40;99.90;;;;;;5092620;28;19957;-75
2022/07/21 01:05:27;;;;;;;;;;;16.40;99.90;;;;;;5092866;28;19904;-76
2022/07/21 01:07:54;;;;;;;;;;;16.40;99.90;;;;;;5093362;28;19911;-75
2022/07/21 01:10:21;;;;;;;;;;;16.40;99.90;;;;;;5092487;28;19992;-76
2022/07/21 01:12:46;;;;;;;;;;;16.40;99.90;;;;;;5092870;28;19999;-77
2022/07/21 01:15:13;;;;;;;;;;;16.30;99.90;;;;;;5092175;28;20359;-76
2022/07/21 01:17:39;;;;;;;;;;;16.30;99.90;;;;;;5093044;28;19912;-76
2022/07/21 01:20:07;;;;;;;;;;;16.30;99.90;;;;;;5092200;28;19957;-75
2022/07/21 01:22:33;;;;;;;;;;;16.20;99.90;;;;;;5093041;28;19991;-75
2022/07/21 01:24:59;;;;;;;;;;;16.30;99.90;;;;;;5092525;28;19905;-75
2022/07/21 01:27:26;;;;;;;;;;;16.30;99.90;;;;;;5092420;28;19911;-74
2022/07/21 01:29:51;;;;;;;;;;;16.20;99.90;;;;;;5092908;28;19942;-75
2022/07/21 01:32:17;;;;;;;;;;;16.30;99.90;;;;;;5092282;28;19939;-74
2022/07/21 01:34:42;;;;;;;;;;;16.30;99.90;;;;;;5092949;28;20339;-75
2022/07/21 01:37:08;;;;;;;;;;;16.30;99.90;;;;;;5092141;28;20409;-75
2022/07/21 01:42:17;;;;;;;;;;;16.40;99.90;;;;;;5091677;28;19961;-75
2022/07/21 01:44:43;;;;;;;;;;;16.40;99.90;;;;;;5092517;28;19935;-74
2022/07/21 01:47:09;;;;;;;;;;;16.40;99.90;;;;;;5092072;28;19942;-75
2022/07/21 01:49:34;;;;;;;;;;;16.30;99.90;;;;;;5092259;28;19958;-75
2022/07/21 01:52:00;;;;;;;;;;;16.30;99.90;;;;;;5092553;28;19998;-76
2022/07/21 01:54:25;;;;;;;;;;;16.30;99.90;;;;;;5091901;28;19904;-75
2022/07/21 01:56:51;;;;;;;;;;;16.30;99.90;;;;;;5092653;28;19918;-74
2022/07/21 01:59:17;;;;;;;;;;;16.40;99.90;;;;;;5091727;28;20377;-75
2022/07/21 02:01:42;;;;;;;;;;;16.30;99.90;;;;;;5092372;28;19954;-75
2022/07/21 02:04:08;;;;;;;;;;;16.30;99.90;;;;;;5091743;28;19904;-74
2022/07/21 02:06:34;;;;;;;;;;;16.30;99.90;;;;;;5092273;28;19908;-75
2022/07/21 02:08:59;;;;;;;;;;;16.30;99.90;;;;;;5093175;28;19911;-75
2022/07/21 02:11:25;;;;;;;;;;;16.30;99.90;;;;;;5077547;28;20014;-74
2022/07/21 02:13:50;;;;;;;;;;;16.30;99.90;;;;;;5095693;28;19904;-74
2022/07/21 02:16:16;;;;;;;;;;;16.30;99.90;;;;;;5095562;28;19918;-74
2022/07/21 02:18:42;;;;;;;;;;;16.20;99.90;;;;;;5096088;28;20374;-75
2022/07/21 02:21:07;;;;;;;;;;;16.10;99.90;;;;;;5095431;28;19994;-74
2022/07/21 02:23:33;;;;;;;;;;;16.10;99.90;;;;;;5077809;28;19903;-75
2022/07/21 02:25:59;;;;;;;;;;;16.10;99.90;;;;;;5095686;28;19911;-76
2022/07/21 02:28:25;;;;;;;;;;;16.10;99.90;;;;;;5095183;28;20453;-75
2022/07/21 02:30:50;;;;;;;;;;;16.10;99.90;;;;;;5095953;28;19911;-76
2022/07/21 02:33:16;;;;;;;;;;;16.10;99.90;;;;;;5095063;28;19904;-75
2022/07/21 02:35:43;;;;;;;;;;;16.10;99.90;;;;;;5095515;28;19954;-75
2022/07/21 02:38:08;;;;;;;;;;;16.10;99.90;;;;;;5076959;28;20347;-74
2022/07/21 02:40:34;;;;;;;;;;;16.10;99.90;;;;;;5077126;28;19908;-74
2022/07/21 02:42:59;;;;;;;;;;;16.10;99.90;;;;;;5095317;28;19904;-76
2022/07/21 02:45:25;;;;;;;;;;;16.10;99.90;;;;;;5094864;28;19947;-75
2022/07/21 02:48:01;;;;;;;;;;;16.10;99.90;;;;;;5095032;28;19916;-76
2022/07/21 02:50:27;;;;;;;;;;;16.10;99.90;;;;;;5094709;28;20105;-75
2022/07/21 02:52:54;;;;;;;;;;;16.00;99.90;;;;;;5095323;28;19904;-76
2022/07/21 02:55:20;;;;;;;;;;;16.00;99.90;;;;;;5094856;28;20425;-75
2022/07/21 02:57:45;;;;;;;;;;;16.00;99.90;;;;;;5095568;28;20011;-76
2022/07/21 03:00:11;;;;;;;;;;;16.00;99.90;;;;;;5094557;28;20294;-75
2022/07/21 03:02:37;;;;;;;;;;;16.00;99.90;;;;;;5095294;28;19958;-75
2022/07/21 03:05:03;;;;;;;;;;;16.00;99.90;;;;;;5095025;28;19939;-76
2022/07/21 03:07:28;;;;;;;;;;;16.00;99.90;;;;;;5094688;28;19904;-75
2022/07/21 03:09:54;;;;;;;;;;;16.00;99.90;;;;;;5094974;28;19915;-75
2022/07/21 03:12:20;;;;;;;;;;;16.00;99.90;;;;;;5094563;28;19904;-75
2022/07/21 03:14:45;;;;;;;;;;;16.00;99.90;;;;;;5095000;28;19910;-75
2022/07/21 03:17:11;;;;;;;;;;;16.00;99.90;;;;;;5094401;28;20346;-75
2022/07/21 03:19:36;;;;;;;;;;;16.10;99.90;;;;;;5094786;28;19904;-75
2022/07/21 03:22:02;;;;;;;;;;;16.00;99.90;;;;;;5094787;28;19991;-75
2022/07/21 03:24:29;;;;;;;;;;;16.10;99.90;;;;;;5094363;28;19911;-75
2022/07/21 03:26:55;;;;;;;;;;;16.10;99.90;;;;;;5094482;28;20381;-76
2022/07/21 03:29:20;;;;;;;;;;;16.10;99.90;;;;;;5094257;28;19995;-74
2022/07/21 03:31:46;;;;;;;;;;;16.10;99.90;;;;;;5094678;28;19911;-74
2022/07/21 03:34:11;;;;;;;;;;;16.10;99.90;;;;;;5093929;28;20363;-74
2022/07/21 03:36:37;;;;;;;;;;;16.00;99.90;;;;;;5094337;28;19904;-75
2022/07/21 03:39:03;;;;;;;;;;;16.00;99.90;;;;;;5094655;28;19904;-75
2022/07/21 03:41:28;;;;;;;;;;;16.10;99.90;;;;;;5093621;28;20509;-75
2022/07/21 03:43:54;;;;;;;;;;;16.00;99.90;;;;;;5094702;28;19916;-74
2022/07/21 03:46:19;;;;;;;;;;;15.90;99.90;;;;;;5093786;28;20045;-73
2022/07/21 03:48:45;;;;;;;;;;;15.90;99.90;;;;;;5094237;28;20053;-74
2022/07/21 03:51:10;;;;;;;;;;;15.80;99.90;;;;;;5094018;28;19911;-75
2022/07/21 03:53:36;;;;;;;;;;;15.90;99.90;;;;;;5094485;28;19930;-75
2022/07/21 03:56:02;;;;;;;;;;;15.80;99.90;;;;;;5093999;28;20257;-75
2022/07/21 03:58:27;;;;;;;;;;;15.80;99.90;;;;;;5093569;28;19912;-74
2022/07/21 04:00:53;;;;;;;;;;;15.80;99.90;;;;;;5094401;28;19904;-74
2022/07/21 04:03:19;;;;;;;;;;;15.70;99.90;;;;;;5075411;28;20327;-74
2022/07/21 04:05:44;;;;;;;;;;;15.70;99.90;;;;;;5093767;28;20271;-76
2022/07/21 04:08:11;;;;;;;;;;;15.60;99.90;;;;;;5093894;28;20420;-75
2022/07/21 04:10:38;;;;;;;;;;;15.60;99.90;;;;;;5093872;28;19904;-75
2022/07/21 04:13:04;;;;;;;;;;;15.60;99.90;;;;;;5093974;28;19910;-75
2022/07/21 04:15:30;;;;;;;;;;;15.60;99.90;;;;;;5092966;28;20673;-75
2022/07/21 04:17:56;;;;;;;;;;;15.50;99.90;;;;;;5093586;28;19937;-75
2022/07/21 04:20:22;;;;;;;;;;;15.50;99.90;;;;;;5093237;28;19908;-74
2022/07/21 04:22:48;;;;;;;;;;;15.40;99.90;;;;;;5075540;28;20046;-75
2022/07/21 04:25:14;;;;;;;;;;;15.40;99.90;;;;;;5093151;28;19908;-75
2022/07/21 04:27:40;;;;;;;;;;;15.40;99.90;;;;;;5093801;28;19904;-75
2022/07/21 04:30:07;;;;;;;;;;;15.20;99.90;;;;;;5093737;28;19927;-75
2022/07/21 04:32:32;;;;;;;;;;;15.20;99.90;;;;;;5092597;28;20309;-75
2022/07/21 04:34:58;;;;;;;;;;;15.10;99.90;;;;;;5093313;28;19908;-75
2022/07/21 04:37:23;;;;;;;;;;;15.00;99.90;;;;;;5092939;28;19923;-74
2022/07/21 04:39:49;;;;;;;;;;;15.00;99.90;;;;;;5093549;28;19904;-75
2022/07/21 04:42:15;;;;;;;;;;;14.90;99.90;;;;;;5092641;28;19995;-76
2022/07/21 04:44:40;;;;;;;;;;;14.90;99.90;;;;;;5075286;28;19904;-76
2022/07/21 04:47:06;;;;;;;;;;;14.80;99.90;;;;;;5093075;28;19940;-75
2022/07/21 04:49:31;;;;;;;;;;;14.80;99.90;;;;;;5092790;28;19911;-75
2022/07/21 04:51:57;;;;;;;;;;;14.70;99.90;;;;;;5093302;28;19915;-75
2022/07/21 04:54:24;;;;;;;;;;;14.70;99.90;;;;;;5092218;28;19924;-75
2022/07/21 04:56:50;;;;;;;;;;;14.70;99.90;;;;;;5093492;28;19914;-75
2022/07/21 04:59:15;;;;;;;;;;;14.70;99.90;;;;;;5092802;28;19912;-75
2022/07/21 05:01:41;;;;;;;;;;;14.60;99.90;;;;;;5092965;28;19904;-76
2022/07/21 05:04:07;;;;;;;;;;;14.60;99.90;;;;;;5093077;28;20311;-75
2022/07/21 05:06:33;;;;;;;;;;;14.60;99.90;;;;;;5074640;28;19904;-75
2022/07/21 05:08:59;;;;;;;;;;;14.60;99.90;;;;;;5093104;28;19904;-76
2022/07/21 05:11:25;;;;;;;;;;;14.60;99.90;;;;;;5092764;28;19904;-74
2022/07/21 05:13:51;;;;;;;;;;;14.60;99.90;;;;;;5093103;28;19908;-75
2022/07/21 05:16:17;;;;;;;;;;;14.60;99.90;;;;;;5074263;28;19904;-74
2022/07/21 05:18:43;;;;;;;;;;;14.50;99.90;;;;;;5092917;28;20369;-74
2022/07/21 05:21:08;;;;;;;;;;;14.50;99.90;;;;;;5092994;28;19908;-75
2022/07/21 05:23:34;;;;;;;;;;;14.50;99.90;;;;;;5092253;28;19949;-74
2022/07/21 05:25:59;;;;;;;;;;;14.60;99.90;;;;;;5092747;28;19904;-76
2022/07/21 05:28:27;;;;;;;;;;;14.60;99.90;;;;;;5092036;28;19904;-74
2022/07/21 05:30:53;;;;;;;;;;;14.60;99.90;;;;;;5092782;28;20394;-74
2022/07/21 05:33:18;;;;;;;;;;;14.50;99.90;;;;;;5092579;28;19943;-74
2022/07/21 05:35:44;;;;;;;;;;;14.60;99.90;;;;;;5092779;28;19914;-74
2022/07/21 05:38:09;;;;;;;;;;;14.60;99.90;;;;;;5092802;28;19956;-75
2022/07/21 05:40:35;;;;;;;;;;;14.70;99.90;;;;;;5092203;28;19908;-75
2022/07/21 05:43:01;;;;;;;;;;;14.80;99.90;;;;;;5092800;28;19904;-75
2022/07/21 05:45:26;;;;;;;;;;;14.80;99.90;;;;;;5095215;28;20357;-74
2022/07/21 05:47:52;;;;;;;;;;;14.80;99.90;;;;;;5096404;28;19969;-74
2022/07/21 05:50:17;;;;;;;;;;;14.80;99.90;;;;;;5096154;28;19947;-75
2022/07/21 05:52:43;;;;;;;;;;;14.90;99.90;;;;;;5096195;28;19908;-75
2022/07/21 05:55:09;;;;;;;;;;;14.90;99.90;;;;;;5078246;28;20274;-75
2022/07/21 05:57:34;;;;;;;;;;;14.90;99.90;;;;;;5095554;28;19912;-74
2022/07/21 06:00:00;;;;;;;;;;;14.90;99.90;;;;;;5096320;28;20366;-75
2022/07/21 06:02:29;;;;;;;;;;;15.00;99.90;;;;;;5095744;28;19908;-75
2022/07/21 06:04:54;;;;;;;;;;;15.00;99.90;;;;;;5096471;28;19930;-75
2022/07/21 06:07:20;;;;;;;;;;;15.10;99.90;;;;;;5095718;28;20398;-75
2022/07/21 06:09:46;;;;;;;;;;;15.10;99.90;;;;;;5095926;28;19910;-76
2022/07/21 06:12:12;;;;;;;;;;;15.10;99.90;;;;;;5095923;28;19903;-75
2022/07/21 06:14:37;;;;;;;;;;;15.10;99.90;;;;;;5094795;28;20523;-76
2022/07/21 06:17:03;;;;;;;;;;;15.20;99.90;;;;;;5095709;28;19908;-76
2022/07/21 06:19:28;;;;;;;;;;;15.20;99.90;;;;;;5077374;28;19998;-75
2022/07/21 06:21:54;;;;;;;;;;;15.20;99.90;;;;;;5096236;28;19908;-76
2022/07/21 06:24:22;;;;;;;;;;;15.30;99.90;;;;;;5095686;28;19919;-75
2022/07/21 06:26:47;;;;;;;;;;;15.30;99.90;;;;;;5095710;28;19904;-75
2022/07/21 06:29:13;;;;;;;;;;;15.30;99.90;;;;;;5096204;28;19904;-76
2022/07/21 06:31:39;;;;;;;;;;;15.30;99.90;;;;;;5095023;28;19904;-75
2022/07/21 06:34:04;;;;;;;;;;;15.30;99.90;;;;;;5095857;28;19908;-76
2022/07/21 06:36:30;;;;;;;;;;;15.40;99.90;;;;;;5095268;28;19904;-76
2022/07/21 06:38:55;;;;;;;;;;;15.50;99.90;;;;;;5095508;28;20247;-75
2022/07/21 06:41:21;;;;;;;;;;;15.50;99.90;;;;;;5095255;28;19904;-74
2022/07/21 06:43:46;;;;;;;;;;;15.60;99.90;;;;;;5095586;28;20366;-75
2022/07/21 06:46:12;;;;;;;;;;;15.60;99.90;;;;;;5095705;28;19947;-75
2022/07/21 06:48:38;;;;;;;;;;;15.60;99.90;;;;;;5094632;28;19915;-75
2022/07/21 06:51:03;;;;;;;;;;;15.60;99.90;;;;;;5077390;28;19908;-76
2022/07/21 06:53:29;;;;;;;;;;;15.70;99.90;;;;;;5094897;28;20006;-75
2022/07/21 06:55:55;;;;;;;;;;;15.70;99.90;;;;;;5094794;28;20424;-75
2022/07/21 06:58:22;;;;;;;;;;;15.90;99.90;;;;;;5094961;28;19908;-76
2022/07/21 07:00:48;;;;;;;;;;;16.00;99.90;;;;;;5094791;28;19912;-76
2022/07/21 07:03:14;;;;;;;;;;;16.10;99.90;;;;;;5094489;28;19911;-76
2022/07/21 07:05:40;;;;;;;;;;;16.10;99.90;;;;;;5094377;28;19933;-77
2022/07/21 07:08:06;;;;;;;;;;;16.20;99.90;;;;;;5095113;28;19995;-76
2022/07/21 07:10:31;;;;;;;;;;;16.20;99.90;;;;;;5094662;28;20274;-77
2022/07/21 07:12:57;;;;;;;;;;;16.10;99.90;;;;;;5094965;28;19908;-75
2022/07/21 07:15:23;;;;;;;;;;;16.10;99.90;;;;;;5094565;28;19912;-75
2022/07/21 07:17:49;;;;;;;;;;;15.90;99.90;;;;;;5076498;28;20357;-75
2022/07/21 07:20:15;;;;;;;;;;;15.80;99.90;;;;;;5094571;28;19908;-75
2022/07/21 07:22:41;;;;;;;;;;;15.80;99.90;;;;;;5094058;28;19991;-76
2022/07/21 07:25:06;;;;;;;;;;;15.90;99.90;;;;;;5094858;28;20377;-76
2022/07/21 07:27:32;;;;;;;;;;;15.90;99.90;;;;;;5094061;28;19912;-75
2022/07/21 07:29:58;;;;;;;;;;;16.00;99.90;;;;;;5094370;28;19915;-75
2022/07/21 07:32:23;;;;;;;;;;;16.10;99.90;;;;;;5094071;28;19958;-74
2022/07/21 07:34:49;;;;;;;;;;;16.10;99.90;;;;;;5094242;28;19908;-74
2022/07/21 07:37:15;;;;;;;;;;;16.10;99.90;;;;;;5094108;28;20015;-75
2022/07/21 07:39:40;;;;;;;;;;;16.10;99.90;;;;;;5094103;28;19908;-75
2022/07/21 07:42:06;;;;;;;;;;;16.20;99.90;;;;;;5094388;28;19908;-75
2022/07/21 07:44:32;;;;;;;;;;;16.30;99.90;;;;;;5094282;28;19998;-75
2022/07/21 07:46:58;;;;;;;;;;;16.40;99.90;;;;;;5093763;28;19926;-75
2022/07/21 07:49:23;;;;;;;;;;;16.60;99.90;;;;;;5094124;28;20373;-75
2022/07/21 07:51:49;;;;;;;;;;;16.80;99.90;;;;;;5093998;28;20270;-75
2022/07/21 07:54:15;;;;;;;;;;;16.90;99.90;;;;;;5094326;28;19908;-76
2022/07/21 07:56:41;;;;;;;;;;;17.00;99.90;;;;;;5093527;28;19908;-75
2022/07/21 07:59:07;;;;;;;;;;;17.00;99.90;;;;;;5094174;28;19915;-75
2022/07/21 08:01:33;;;;;;;;;;;17.20;99.90;;;;;;5092780;28;20278;-76
2022/07/21 08:03:58;;;;;;;;;;;17.10;99.90;;;;;;5093680;28;19911;-75
2022/07/21 08:06:24;;;;;;;;;;;17.10;99.90;;;;;;5093259;28;19908;-75
2022/07/21 08:08:50;;;;;;;;;;;17.20;99.90;;;;;;5093247;28;19904;-75
2022/07/21 08:11:15;;;;;;;;;;;17.10;99.90;;;;;;5093727;28;19911;-75
2022/07/21 08:13:41;;;;;;;;;;;17.00;99.90;;;;;;5093112;28;19904;-74
2022/07/21 08:16:07;;;;;;;;;;;17.00;99.90;;;;;;5093399;28;19999;-75
2022/07/21 08:18:33;;;;;;;;;;;17.00;99.90;;;;;;5092752;28;20342;-75
2022/07/21 08:20:58;;;;;;;;;;;17.00;99.90;;;;;;5093323;28;19908;-76
2022/07/21 08:23:24;;;;;;;;;;;17.10;99.90;;;;;;5093706;28;19907;-76
2022/07/21 08:25:49;;;;;;;;;;;17.10;99.90;;;;;;5092924;28;20270;-75
2022/07/21 08:28:15;;;;;;;;;;;17.10;99.90;;;;;;5093658;28;19910;-75
2022/07/21 08:30:41;;;;;;;;;;;17.20;99.90;;;;;;5092945;28;19904;-76
2022/07/21 08:33:06;;;;;;;;;;;17.20;99.90;;;;;;5093642;28;19944;-75
2022/07/21 08:35:33;;;;;;;;;;;17.30;99.90;;;;;;5092731;28;19904;-74
2022/07/21 08:38:00;;;;;;;;;;;17.30;99.90;;;;;;5093290;28;19962;-75
2022/07/21 08:40:27;;;;;;;;;;;17.30;99.90;;;;;;5093607;28;19961;-75
2022/07/21 08:42:53;;;;;;;;;;;17.40;99.90;;;;;;5093234;28;19957;-75
2022/07/21 08:45:19;;;;;;;;;;;17.40;99.90;;;;;;5093018;28;20426;-76
2022/07/21 08:47:45;;;;;;;;;;;17.30;99.90;;;;;;5092795;28;19948;-75
2022/07/21 08:50:11;;;;;;;;;;;17.30;99.90;;;;;;5093001;28;19993;-75
2022/07/21 08:52:36;;;;;;;;;;;17.30;99.90;;;;;;5072807;28;19904;-76
2022/07/21 08:55:02;;;;;;;;;;;17.30;99.90;;;;;;5071714;28;20359;-75
2022/07/21 08:57:28;;;;;;;;;;;17.20;99.90;;;;;;5071194;28;19955;-75
2022/07/21 08:59:54;;;;;;;;;;;17.20;99.90;;;;;;5071619;28;20359;-75
2022/07/21 09:02:30;;;;;;;;;;;17.10;99.90;;;;;;5072434;28;19905;-75
2022/07/21 09:04:55;;;;;;;;;;;17.00;99.90;;;;;;5083961;28;19911;-77
2022/07/21 09:07:22;;;;;;;;;;;16.90;99.90;;;;;;5074504;28;19904;-75
2022/07/21 09:09:55;;;;;;;;;;;16.90;99.90;;;;;;5071874;28;20408;-76
2022/07/21 09:12:20;;;;;;;;;;;16.80;99.90;;;;;;5072470;28;20408;-76
2022/07/21 09:14:46;;;;;;;;;;;16.80;99.90;;;;;;5072108;28;19904;-77
2022/07/21 09:17:12;;;;;;;;;;;16.80;99.90;;;;;;5072300;28;20345;-76
2022/07/21 09:19:38;;;;;;;;;;;16.80;99.90;;;;;;5072196;28;19908;-75
2022/07/21 09:22:05;;;;;;;;;;;16.80;99.90;;;;;;5071729;28;19938;-76
2022/07/21 09:24:38;;;;;;;;;;;16.80;99.90;;;;;;5071858;28;19904;-73
2022/07/21 09:27:16;;;;;;;;;;;16.90;99.90;;;;;;5072276;28;20422;-77
2022/07/21 09:29:44;;;;;;;;;;;16.90;99.90;;;;;;5071722;28;19904;-76
2022/07/21 09:32:21;;;;;;;;;;;17.00;99.90;;;;;;5071604;28;19905;-76
2022/07/21 09:34:48;;;;;;;;;;;17.00;99.90;;;;;;5072067;28;19909;-76
2022/07/21 09:37:14;;;;;;;;;;;17.00;99.90;;;;;;5072393;28;20078;-76
2022/07/21 09:39:50;;;;;;;;;;;17.00;99.90;;;;;;5071676;28;19916;-76
2022/07/21 09:42:17;;;;;;;;;;;17.00;99.90;;;;;;5071499;28;19947;-76
2022/07/21 09:44:44;;;;;;;;;;;16.90;99.90;;;;;;5071301;28;19912;-76
2022/07/21 09:47:14;;;;;;;;;;;16.80;99.90;;;;;;5071647;28;20379;-76
2022/07/21 09:49:40;;;;;;;;;;;16.70;99.90;;;;;;5071567;28;19911;-76
2022/07/21 09:52:26;;;;;;;;;;;16.70;99.90;;;;;;5072349;28;19927;-77
2022/07/21 09:54:53;;;;;;;;;;;16.70;99.90;;;;;;5057505;28;19991;-75
2022/07/21 09:57:19;;;;;;;;;;;16.70;99.90;;;;;;5072353;28;19912;-75
2022/07/21 09:59:46;;;;;;;;;;;16.60;99.90;;;;;;5071719;28;20329;-76
2022/07/21 10:02:16;;;;;;;;;;;16.60;99.90;;;;;;5072316;28;19905;-76
2022/07/21 10:04:42;;;;;;;;;;;16.60;99.90;;;;;;5072102;28;19980;-76
2022/07/21 10:07:08;;;;;;;;;;;16.70;99.90;;;;;;5071953;28;19904;-76
2022/07/21 10:09:34;;;;;;;;;;;16.70;99.90;;;;;;5071548;28;20307;-76
2022/07/21 10:11:59;;;;;;;;;;;16.70;99.90;;;;;;5072528;28;20019;-76
2022/07/21 10:14:25;;;;;;;;;;;16.70;99.90;;;;;;5072237;28;20378;-77
2022/07/21 10:16:51;;;;;;;;;;;16.60;99.90;;;;;;5071567;28;20363;-76
2022/07/21 10:19:19;;;;;;;;;;;16.60;99.90;;;;;;5072202;28;20263;-76
2022/07/21 10:21:54;;;;;;;;;;;16.60;99.90;;;;;;5071330;28;19949;-76
2022/07/21 10:24:19;;;;;;;;;;;16.70;99.90;;;;;;5072466;28;19944;-76
2022/07/21 10:27:04;;;;;;;;;;;16.80;99.90;;;;;;5071494;28;19904;-76
2022/07/21 10:29:48;;;;;;;;;;;16.80;99.90;;;;;;5054004;28;20295;-76
2022/07/21 10:32:18;;;;;;;;;;;16.90;99.90;;;;;;5075499;28;19904;-75
2022/07/21 10:34:44;;;;;;;;;;;16.90;99.90;;;;;;5057024;28;19904;-76
2022/07/21 10:37:10;;;;;;;;;;;16.90;99.90;;;;;;5075390;28;20020;-78
2022/07/21 10:39:36;;;;;;;;;;;16.70;99.90;;;;;;5074710;28;19908;-75
2022/07/21 10:42:13;;;;;;;;;;;16.80;99.90;;;;;;5057497;28;19927;-78
2022/07/21 10:44:39;;;;;;;;;;;16.80;99.90;;;;;;5074892;28;19912;-76
2022/07/21 10:47:17;;;;;;;;;;;16.80;99.90;;;;;;5075271;28;20283;-76
2022/07/21 10:49:56;;;;;;;;;;;16.90;99.90;;;;;;5074774;28;19904;-76
2022/07/21 10:52:34;;;;;;;;;;;16.90;99.90;;;;;;5074985;28;19958;-76
2022/07/21 10:55:26;;;;;;;;;;;17.00;99.90;;;;;;5075185;28;19926;-77
2022/07/21 10:58:13;;;;;;;;;;;17.10;99.90;;;;;;5074233;28;20279;-77
2022/07/21 11:00:39;;;;;;;;;;;17.20;99.90;;;;;;5074312;28;19954;-76
2022/07/21 11:03:16;;;;;;;;;;;17.40;99.90;;;;;;5075065;28;19912;-76
2022/07/21 11:06:05;;;;;;;;;;;17.50;99.90;;;;;;5074424;28;19979;-76
2022/07/21 11:08:42;;;;;;;;;;;17.70;99.90;;;;;;5075272;28;19904;-76
2022/07/21 11:11:11;;;;;;;;;;;17.90;99.90;;;;;;5074740;28;19975;-76
2022/07/21 11:13:55;;;;;;;;;;;18.10;99.90;;;;;;5074575;28;19905;-76
2022/07/21 11:16:21;;;;;;;;;;;18.20;99.90;;;;;;5075177;28;19908;-76
2022/07/21 11:18:46;;;;;;;;;;;18.20;99.90;;;;;;5074025;28;19923;-76
2022/07/21 11:21:13;;;;;;;;;;;18.10;99.90;;;;;;5074844;28;19915;-76
2022/07/21 11:23:41;;;;;;;;;;;18.00;99.90;;;;;;5074099;28;19986;-75
2022/07/21 11:26:07;;;;;;;;;;;17.90;99.90;;;;;;5074641;28;19905;-76
2022/07/21 11:28:33;;;;;;;;;;;17.80;99.90;;;;;;5074531;28;20050;-76
2022/07/21 11:31:20;;;;;;;;;;;17.70;99.90;;;;;;5073895;28;20462;-76
2022/07/21 11:33:46;;;;;;;;;;;17.70;99.90;;;;;;5073851;28;20001;-76
2022/07/21 11:36:26;;;;;;;;;;;17.80;99.90;;;;;;5074160;28;19905;-76
2022/07/21 11:38:57;;;;;;;;;;;18.00;99.90;;;;;;5073790;28;19908;-76
2022/07/21 11:41:23;;;;;;;;;;;18.20;99.90;;;;;;5073170;28;19947;-76
2022/07/21 11:43:48;;;;;;;;;;;18.10;99.90;;;;;;5073205;28;19951;-77
2022/07/21 11:46:14;;;;;;;;;;;18.20;99.90;;;;;;5074211;28;19909;-76
2022/07/21 11:48:39;;;;;;;;;;;18.30;99.90;;;;;;5073868;28;20009;-76
2022/07/21 11:51:06;;;;;;;;;;;18.50;99.90;;;;;;5074270;28;19910;-76
2022/07/21 11:53:31;;;;;;;;;;;18.70;99.90;;;;;;5073672;28;19927;-76
2022/07/21 11:55:57;;;;;;;;;;;18.90;99.90;;;;;;5055522;28;19904;-76
2022/07/21 11:58:23;;;;;;;;;;;19.10;99.90;;;;;;5056010;28;19908;-76
2022/07/21 12:00:49;;;;;;;;;;;19.20;99.90;;;;;;5073192;28;19915;-76
2022/07/21 12:03:14;;;;;;;;;;;19.20;99.90;;;;;;5055822;28;19909;-76
2022/07/21 12:05:40;;;;;;;;;;;19.30;99.90;;;;;;5073991;28;20397;-76
2022/07/21 12:08:06;;;;;;;;;;;19.20;99.90;;;;;;5073682;28;19904;-76
2022/07/21 12:10:32;;;;;;;;;;;19.20;99.90;;;;;;5073406;28;20397;-76
2022/07/21 12:12:59;;;;;;;;;;;19.20;99.90;;;;;;5073186;28;20244;-77
2022/07/21 12:15:30;;;;;;;;;;;19.30;99.90;;;;;;5073956;28;19915;-77
2022/07/21 12:18:00;;;;;;;;;;;19.20;99.90;;;;;;5072741;28;19916;-77
2022/07/21 12:20:26;;;;;;;;;;;19.00;99.90;;;;;;5073572;28;20291;-77
2022/07/21 12:22:52;;;;;;;;;;;18.90;99.90;;;;;;5072669;28;19904;-77
2022/07/21 12:25:18;;;;;;;;;;;18.90;99.90;;;;;;5073241;28;19905;-76
2022/07/21 12:27:49;;;;;;;;;;;18.80;99.90;;;;;;5072764;28;19904;-76
2022/07/21 12:30:33;;;;;;;;;;;18.80;99.90;;;;;;5073135;28;19978;-76
2022/07/21 12:33:06;;;;;;;;;;;18.80;99.90;;;;;;5072622;28;19912;-76
2022/07/21 12:35:32;;;;;;;;;;;18.60;99.90;;;;;;5055375;28;20327;-77
2022/07/21 12:37:59;;;;;;;;;;;18.80;99.90;;;;;;5054448;28;20282;-76
2022/07/21 12:40:25;;;;;;;;;;;18.90;99.90;;;;;;5073234;28;19912;-77
2022/07/21 12:42:51;;;;;;;;;;;18.80;99.90;;;;;;5072358;28;19904;-76
2022/07/21 12:45:18;;;;;;;;;;;18.80;99.90;;;;;;5073073;28;20292;-75
2022/07/21 12:48:03;;;;;;;;;;;18.70;99.90;;;;;;5054190;28;19920;-75
2022/07/21 12:50:29;;;;;;;;;;;18.60;99.90;;;;;;5072960;28;20003;-76
2022/07/21 12:52:54;;;;;;;;;;;18.70;99.90;;;;;;5071633;28;20335;-76
2022/07/21 12:55:20;;;;;;;;;;;18.70;99.90;;;;;;5072673;28;19905;-77
2022/07/21 12:57:45;;;;;;;;;;;18.70;99.90;;;;;;5072583;28;19958;-76
2022/07/21 13:00:11;;;;;;;;;;;18.80;99.90;;;;;;5073097;28;19916;-77
2022/07/21 13:02:51;;;;;;;;;;;18.90;99.90;;;;;;5072453;28;19951;-75
2022/07/21 13:05:17;;;;;;;;;;;18.90;99.90;;;;;;5072860;28;19958;-75
2022/07/21 13:07:42;;;;;;;;;;;18.80;99.90;;;;;;5072444;28;19908;-76
2022/07/21 13:10:08;;;;;;;;;;;18.80;99.90;;;;;;5072338;28;19904;-77
2022/07/21 13:12:33;;;;;;;;;;;18.80;99.90;;;;;;5072877;28;20318;-76
2022/07/21 13:14:59;;;;;;;;;;;18.80;99.90;;;;;;5071805;28;19939;-75
2022/07/21 13:17:25;;;;;;;;;;;18.80;99.90;;;;;;5054875;28;19916;-76
2022/07/21 13:19:50;;;;;;;;;;;18.90;99.90;;;;;;5071932;28;20287;-75
2022/07/21 13:22:16;;;;;;;;;;;19.00;99.90;;;;;;5073144;28;19904;-76
2022/07/21 13:24:41;;;;;;;;;;;19.10;99.90;;;;;;5072728;28;20042;-77
2022/07/21 13:27:07;;;;;;;;;;;19.10;99.90;;;;;;5072063;28;19908;-77
2022/07/21 13:29:33;;;;;;;;;;;19.20;99.90;;;;;;5072224;28;19911;-77
2022/07/21 13:31:59;;;;;;;;;;;19.10;99.90;;;;;;5071580;28;19904;-77
2022/07/21 13:34:24;;;;;;;;;;;19.20;99.90;;;;;;5072990;28;19909;-77
2022/07/21 13:36:50;;;;;;;;;;;19.10;99.90;;;;;;5071917;28;19904;-76
2022/07/21 13:39:15;;;;;;;;;;;19.00;99.90;;;;;;5072601;28;19915;-77
2022/07/21 13:41:41;;;;;;;;;;;19.00;99.90;;;;;;5072509;28;19904;-76
2022/07/21 13:44:06;;;;;;;;;;;19.00;99.90;;;;;;5072035;28;20211;-77
2022/07/21 13:46:32;;;;;;;;;;;19.10;99.90;;;;;;5072352;28;20409;-76
2022/07/21 13:48:58;;;;;;;;;;;19.20;99.90;;;;;;5071831;28;20022;-76
2022/07/21 13:51:23;;;;;;;;;;;19.30;99.90;;;;;;5072419;28;19904;-77
2022/07/21 13:53:50;;;;;;;;;;;19.30;99.90;;;;;;5071321;28;19944;-76
2022/07/21 13:56:17;;;;;;;;;;;19.30;99.90;;;;;;5072426;28;19904;-77
2022/07/21 13:58:43;;;;;;;;;;;19.40;99.90;;;;;;5072365;28;19908;-76
2022/07/21 14:01:09;;;;;;;;;;;19.50;99.90;;;;;;5071501;28;19909;-77
2022/07/21 14:03:35;;;;;;;;;;;19.60;99.90;;;;;;5072357;28;19908;-75
2022/07/21 14:06:01;;;;;;;;;;;19.70;99.90;;;;;;5074094;28;20325;-77
2022/07/21 14:08:27;;;;;;;;;;;19.80;99.90;;;;;;5076074;28;19908;-77
2022/07/21 14:10:52;;;;;;;;;;;19.90;99.90;;;;;;5075511;28;19911;-77
2022/07/21 14:13:18;;;;;;;;;;;20.00;99.90;;;;;;5076052;28;20249;-77
2022/07/21 14:15:44;;;;;;;;;;;20.00;99.90;;;;;;5076048;28;19904;-77
2022/07/21 14:18:09;;;;;;;;;;;19.90;99.90;;;;;;5075130;28;19908;-77